CheckWX is a tool to help pilots better visualize weather data.  It is not intended as a substitute for an official pre-flight weather briefing.

03:16:58 UTC

KHGR METAR
Hagerstown Regional-Richard A Henson Field Airport
Hagerstown, Maryland, USA
Current

24 mins ago

KHGR 270253Z AUTO 00000KT 10SM CLR 22/19 A2997 RMK AO2 SLP151 60000 T02170189 50015
Observed
May-27 @ 02:53 UTC
Visibility
10 SM
Flight Rules
VFR
Cloud Levels
  • Clear skies
Temperature
22°C / 72°F
Dewpoint
19°C / 66°F
Humidity
83%
Altimeter
29.97" Hg
Pressure
1014.92 hPa
Previous

1 hour ago

KHGR 270153Z 00000KT 10SM BKN065 23/19 A2998 RMK AO2 SLP154 T02280189
Observed
May-27 @ 01:53 UTC
Visibility
10 SM
Flight Rules
VFR
Cloud Levels
  • Broken at 6,500' AGL
Temperature
23°C / 73°F
Dewpoint
19°C / 66°F
Humidity
78%
Altimeter
29.98" Hg
Pressure
1015.22 hPa
Previous

2 hours ago

KHGR 270114Z 21004KT 10SM BKN065 22/19 A2996 RMK AO2 LTG DSNT SE AND S T02220189
Observed
May-27 @ 01:14 UTC
Wind
  • 210° at 4 KTS
Visibility
10 SM
Flight Rules
VFR
Cloud Levels
  • Broken at 6,500' AGL
Temperature
22°C / 72°F
Dewpoint
19°C / 66°F
Humidity
83%
Altimeter
29.96" Hg
Pressure
1014.52 hPa